createdAt,value
2023-02-19T00:01:16.690Z,9.98
2023-02-19T00:03:47.554Z,9.95
2023-02-19T00:06:13.858Z,9.97
2023-02-19T00:08:40.166Z,9.97
2023-02-19T00:11:12.509Z,10.01
2023-02-19T00:13:40.978Z,10.02
2023-02-19T00:16:09.343Z,10.09
2023-02-19T00:18:36.563Z,10.08
2023-02-19T00:21:03.817Z,10.05
2023-02-19T00:23:31.048Z,10.07
2023-02-19T00:26:01.096Z,10.10
2023-02-19T00:28:35.665Z,10.11
2023-02-19T00:31:19.426Z,10.17
2023-02-19T00:33:48.991Z,10.19
2023-02-19T00:36:15.891Z,10.17
2023-02-19T00:38:43.667Z,10.25
2023-02-19T00:41:20.479Z,10.28
2023-02-19T00:43:46.685Z,10.25
2023-02-19T00:46:13.042Z,10.21
2023-02-19T00:48:39.361Z,10.19
2023-02-19T00:51:05.802Z,10.16
2023-02-19T00:53:32.352Z,10.20
2023-02-19T00:55:58.679Z,10.17
2023-02-19T00:58:25.024Z,10.14
2023-02-19T01:00:51.433Z,10.14
2023-02-19T01:03:17.675Z,10.13
2023-02-19T01:05:43.995Z,10.07
2023-02-19T01:08:10.350Z,10.07
2023-02-19T01:10:36.602Z,10.08
2023-02-19T01:13:02.920Z,10.11
2023-02-19T01:15:29.220Z,10.11
2023-02-19T01:17:55.472Z,10.12
2023-02-19T01:20:21.778Z,10.10
2023-02-19T01:22:48.078Z,10.10
2023-02-19T01:25:14.401Z,10.12
2023-02-19T01:27:40.705Z,10.08
2023-02-19T01:30:07.522Z,10.09
2023-02-19T01:32:33.811Z,10.07
2023-02-19T01:35:00.101Z,10.14
2023-02-19T01:37:26.706Z,10.17
2023-02-19T01:39:53.023Z,10.25
2023-02-19T01:42:19.320Z,10.23
2023-02-19T01:44:45.626Z,10.23
2023-02-19T01:47:12.720Z,10.21
2023-02-19T01:49:52.300Z,10.21
2023-02-19T01:52:28.262Z,10.27
2023-02-19T01:54:54.876Z,10.24
2023-02-19T01:57:24.945Z,10.23
2023-02-19T01:59:55.171Z,10.31
2023-02-19T02:02:23.614Z,10.24
2023-02-19T02:04:49.891Z,10.23
2023-02-19T02:07:35.350Z,10.17
2023-02-19T02:10:20.716Z,10.22
2023-02-19T02:12:52.042Z,10.29
2023-02-19T02:15:19.030Z,10.32
2023-02-19T02:18:00.182Z,10.27
2023-02-19T02:20:58.400Z,10.29
2023-02-19T02:23:56.323Z,10.23
2023-02-19T02:26:53.204Z,10.22
2023-02-19T02:29:47.280Z,10.19
2023-02-19T02:32:21.311Z,10.23
2023-02-19T02:34:53.777Z,10.22
2023-02-19T02:37:20.227Z,10.20
2023-02-19T02:39:47.415Z,10.15
2023-02-19T02:42:28.611Z,10.16
2023-02-19T02:45:14.262Z,10.20
2023-02-19T02:47:47.785Z,10.14
2023-02-19T02:50:25.308Z,10.21
2023-02-19T02:53:14.815Z,10.23
2023-02-19T02:55:47.067Z,10.18
2023-02-19T02:58:16.732Z,10.04
2023-02-19T03:01:06.396Z,9.94
2023-02-19T03:03:35.624Z,9.85
2023-02-19T03:06:06.636Z,9.78
2023-02-19T03:08:48.559Z,9.73
2023-02-19T03:11:33.214Z,9.65
2023-02-19T03:14:29.424Z,9.58
2023-02-19T03:17:19.121Z,9.53
2023-02-19T03:19:50.891Z,9.45
2023-02-19T03:22:21.773Z,9.43
2023-02-19T03:25:15.391Z,9.45
2023-02-19T03:27:44.595Z,9.55
2023-02-19T03:30:22.312Z,9.50
2023-02-19T03:32:55.179Z,9.45
2023-02-19T03:35:25.664Z,9.42
2023-02-19T03:38:13.404Z,9.46
2023-02-19T03:41:04.289Z,9.48
2023-02-19T03:43:53.531Z,9.70
2023-02-19T03:46:34.802Z,9.68
2023-02-19T03:49:08.152Z,9.61
2023-02-19T03:51:43.186Z,9.66
2023-02-19T03:54:19.832Z,9.65
2023-02-19T03:56:53.343Z,9.67
2023-02-19T03:59:31.090Z,9.77
2023-02-19T04:02:08.433Z,9.82
2023-02-19T04:04:49.676Z,9.87
2023-02-19T04:07:16.834Z,9.87
2023-02-19T04:09:47.552Z,9.90
2023-02-19T04:12:15.906Z,9.87
2023-02-19T04:14:48.932Z,9.87
2023-02-19T04:17:23.508Z,9.96
2023-02-19T04:19:52.648Z,9.90
2023-02-19T04:22:21.653Z,9.89
2023-02-19T04:24:50.440Z,9.82
2023-02-19T04:27:17.281Z,9.72
2023-02-19T04:29:43.970Z,9.60
2023-02-19T04:32:11.893Z,9.55
2023-02-19T04:34:38.221Z,9.48
2023-02-19T04:37:04.580Z,9.40
2023-02-19T04:39:30.966Z,9.44
2023-02-19T04:41:57.293Z,9.34
2023-02-19T04:44:23.628Z,9.40
2023-02-19T04:46:49.948Z,9.46
2023-02-19T04:49:16.217Z,9.47
2023-02-19T04:51:42.598Z,9.45
2023-02-19T04:54:08.957Z,9.40
2023-02-19T04:56:35.310Z,9.41
2023-02-19T04:59:02.667Z,9.29
2023-02-19T05:01:29.221Z,9.33
2023-02-19T05:03:55.489Z,9.38
2023-02-19T05:06:21.783Z,9.35
2023-02-19T05:08:48.664Z,9.39
2023-02-19T05:11:14.942Z,9.40
2023-02-19T05:13:41.477Z,9.45
2023-02-19T05:16:13.725Z,9.43
2023-02-19T05:18:40.600Z,9.44
2023-02-19T05:21:06.921Z,9.39
2023-02-19T05:23:33.234Z,9.41
2023-02-19T05:25:59.505Z,9.47
2023-02-19T05:28:28.892Z,9.55
2023-02-19T05:30:56.964Z,9.59
2023-02-19T05:33:25.807Z,9.61
2023-02-19T05:35:55.027Z,9.62
2023-02-19T05:38:22.514Z,9.59
2023-02-19T05:40:49.141Z,9.64
2023-02-19T05:43:15.836Z,9.66
2023-02-19T05:45:42.472Z,9.72
2023-02-19T05:48:10.968Z,9.69
2023-02-19T05:50:39.813Z,9.69
2023-02-19T05:53:06.461Z,9.71
2023-02-19T05:55:36.108Z,9.77
2023-02-19T05:58:02.526Z,9.81
2023-02-19T06:00:29.019Z,9.85
2023-02-19T06:02:55.435Z,9.84
2023-02-19T06:05:21.829Z,9.80
2023-02-19T06:07:50.281Z,9.84
2023-02-19T06:10:16.993Z,9.87
2023-02-19T06:12:43.468Z,9.84
2023-02-19T06:15:09.881Z,9.83
2023-02-19T06:17:36.234Z,9.82
2023-02-19T06:20:02.994Z,9.82
2023-02-19T06:22:29.301Z,9.84
2023-02-19T06:24:55.724Z,9.85
2023-02-19T06:27:22.089Z,9.89
2023-02-19T06:29:48.596Z,9.91
2023-02-19T06:32:15.004Z,9.96
2023-02-19T06:34:41.327Z,9.97
2023-02-19T06:37:07.710Z,9.98
2023-02-19T06:39:34.031Z,9.97
2023-02-19T06:42:00.343Z,9.96
2023-02-19T06:44:26.686Z,9.97
2023-02-19T06:46:55.663Z,9.97
2023-02-19T06:49:22.669Z,9.95
2023-02-19T06:51:48.995Z,9.97
2023-02-19T06:54:15.304Z,9.96
2023-02-19T06:56:41.897Z,9.95
2023-02-19T06:59:11.583Z,9.97
2023-02-19T07:01:39.185Z,9.99
2023-02-19T07:04:07.271Z,9.95
2023-02-19T07:06:34.929Z,9.98
2023-02-19T07:09:02.193Z,9.99
2023-02-19T07:11:34.076Z,9.99
2023-02-19T07:14:02.516Z,10.05
2023-02-19T07:16:29.597Z,10.01
2023-02-19T07:18:57.844Z,10.06
2023-02-19T07:21:24.282Z,10.05
2023-02-19T07:23:50.608Z,10.09
2023-02-19T07:26:18.916Z,10.08
2023-02-19T07:28:47.433Z,10.11
2023-02-19T07:31:18.513Z,10.08
2023-02-19T07:33:45.751Z,10.11
2023-02-19T07:36:13.082Z,10.16
2023-02-19T07:38:39.881Z,10.29
2023-02-19T07:41:06.914Z,10.39
2023-02-19T07:43:35.761Z,10.36
2023-02-19T07:46:06.385Z,10.36
2023-02-19T07:48:34.785Z,10.36
2023-02-19T07:51:02.259Z,10.44
2023-02-19T07:53:29.026Z,10.48
2023-02-19T07:56:01.521Z,10.44
2023-02-19T07:58:28.980Z,10.45
2023-02-19T08:00:55.343Z,10.41
2023-02-19T08:03:22.096Z,10.36
2023-02-19T08:05:49.884Z,10.34
2023-02-19T08:08:16.234Z,10.33
2023-02-19T08:11:01.367Z,10.42
2023-02-19T08:13:30.680Z,10.31
2023-02-19T08:16:16.328Z,10.18
2023-02-19T08:18:45.969Z,10.07
2023-02-19T08:21:12.676Z,10.06
2023-02-19T08:23:39.875Z,10.08
2023-02-19T08:26:06.845Z,10.20
2023-02-19T08:28:33.235Z,10.33
2023-02-19T08:31:05.033Z,10.48
2023-02-19T08:33:31.429Z,10.56
2023-02-19T08:36:04.585Z,10.62
2023-02-19T08:38:32.188Z,10.67
2023-02-19T08:40:58.965Z,10.76
2023-02-19T08:43:25.312Z,10.76
2023-02-19T08:45:53.452Z,10.82
2023-02-19T08:48:19.797Z,10.89
2023-02-19T08:50:53.864Z,10.96
2023-02-19T08:53:20.197Z,10.95
2023-02-19T08:55:47.013Z,11.07
2023-02-19T08:58:13.308Z,11.19
2023-02-19T09:00:39.595Z,11.19
2023-02-19T09:03:06.075Z,11.26
2023-02-19T09:05:32.421Z,11.21
2023-02-19T09:07:58.750Z,11.23
2023-02-19T09:10:25.077Z,11.20
2023-02-19T09:12:51.395Z,11.11
2023-02-19T09:15:18.068Z,11.14
2023-02-19T09:17:44.435Z,11.08
2023-02-19T09:20:11.377Z,11.16
2023-02-19T09:22:37.691Z,11.14
2023-02-19T09:25:04.211Z,11.22
2023-02-19T09:27:32.170Z,11.33
2023-02-19T09:29:58.603Z,11.34
2023-02-19T09:32:25.006Z,11.43
2023-02-19T09:34:51.345Z,11.51
2023-02-19T09:37:17.614Z,11.54
2023-02-19T09:39:44.078Z,11.52
2023-02-19T09:42:20.930Z,11.52
2023-02-19T09:44:50.382Z,11.44
2023-02-19T09:47:25.460Z,11.32
2023-02-19T09:50:01.052Z,11.36
2023-02-19T09:52:36.633Z,11.33
2023-02-19T09:55:14.599Z,11.26
2023-02-19T09:57:42.665Z,11.32
2023-02-19T10:00:12.298Z,11.37
2023-02-19T10:02:39.126Z,11.45
2023-02-19T10:05:14.067Z,11.46
2023-02-19T10:07:45.277Z,11.51
2023-02-19T10:10:14.627Z,11.54
2023-02-19T10:12:46.633Z,11.29
2023-02-19T10:15:31.984Z,11.25
2023-02-19T10:17:58.553Z,11.40
2023-02-19T10:20:27.822Z,11.38
2023-02-19T10:23:02.839Z,11.52
2023-02-19T10:25:30.943Z,11.54
2023-02-19T10:27:59.826Z,11.62
2023-02-19T10:30:35.375Z,11.85
2023-02-19T10:33:12.547Z,12.00
2023-02-19T10:35:58.126Z,12.45
2023-02-19T10:38:32.707Z,13.09
2023-02-19T10:41:04.072Z,13.48
2023-02-19T10:43:34.821Z,13.36
2023-02-19T10:46:05.223Z,13.47
2023-02-19T10:48:37.461Z,13.11
2023-02-19T10:51:11.283Z,12.91
2023-02-19T10:53:44.300Z,12.88
2023-02-19T10:56:24.827Z,13.02
2023-02-19T10:58:51.610Z,13.04
2023-02-19T11:01:23.380Z,12.76
2023-02-19T11:04:12.930Z,12.73
2023-02-19T11:06:39.941Z,12.72
2023-02-19T11:09:06.559Z,12.91
2023-02-19T11:11:39.422Z,13.01
2023-02-19T11:14:16.556Z,13.14
2023-02-19T11:16:56.247Z,13.31
2023-02-19T11:19:54.084Z,13.75
2023-02-19T11:22:35.248Z,13.68
2023-02-19T11:25:25.533Z,13.67
2023-02-19T11:28:07.168Z,13.50
2023-02-19T11:30:47.665Z,13.05
2023-02-19T11:33:17.007Z,12.82
2023-02-19T11:35:44.527Z,12.82
2023-02-19T11:38:14.005Z,12.74
2023-02-19T11:40:47.998Z,12.68
2023-02-19T11:43:24.589Z,12.46
2023-02-19T11:45:54.680Z,12.52
2023-02-19T11:48:55.046Z,12.55
2023-02-19T11:51:34.151Z,12.52
2023-02-19T11:54:14.980Z,12.38
2023-02-19T11:56:42.994Z,12.49
2023-02-19T11:59:18.191Z,12.64
2023-02-19T12:02:22.019Z,12.51
2023-02-19T12:05:18.225Z,12.43
2023-02-19T12:08:17.276Z,12.58
2023-02-19T12:11:02.420Z,12.66
2023-02-19T12:13:34.704Z,12.94
2023-02-19T12:16:19.496Z,13.37
2023-02-19T12:19:16.924Z,13.93
2023-02-19T12:22:03.461Z,14.11
2023-02-19T12:24:53.576Z,14.43
2023-02-19T12:27:46.615Z,14.38
2023-02-19T12:30:33.194Z,13.93
2023-02-19T12:33:23.683Z,13.90
2023-02-19T12:36:06.956Z,13.85
2023-02-19T12:38:41.465Z,13.52
2023-02-19T12:41:32.470Z,13.51
2023-02-19T12:44:11.260Z,13.40
2023-02-19T12:46:45.057Z,13.52
2023-02-19T12:49:22.512Z,13.87
2023-02-19T12:51:54.984Z,13.64
2023-02-19T12:54:32.771Z,13.83
2023-02-19T12:57:20.676Z,14.04
2023-02-19T12:59:55.141Z,13.87
2023-02-19T13:02:53.425Z,13.46
2023-02-19T13:05:35.134Z,13.54
2023-02-19T13:08:18.687Z,13.72
2023-02-19T13:10:51.922Z,14.10
2023-02-19T13:13:34.387Z,14.71
2023-02-19T13:16:09.463Z,15.00
2023-02-19T13:18:46.263Z,14.51
2023-02-19T13:21:35.376Z,14.41
2023-02-19T13:24:07.500Z,14.26
2023-02-19T13:26:54.881Z,13.62
2023-02-19T13:29:51.344Z,13.24
2023-02-19T13:32:44.542Z,13.21
2023-02-19T13:35:26.008Z,13.25
2023-02-19T13:37:54.549Z,13.86
2023-02-19T13:40:33.234Z,14.14
2023-02-19T13:43:02.399Z,14.71
2023-02-19T13:45:34.675Z,14.23
2023-02-19T13:48:14.086Z,14.14
2023-02-19T13:50:40.642Z,13.79
2023-02-19T13:53:55.841Z,13.06
2023-02-19T13:56:31.422Z,12.78
2023-02-19T13:59:12.291Z,12.66
2023-02-19T14:01:54.024Z,12.92
2023-02-19T14:04:25.096Z,12.92
2023-02-19T14:07:03.865Z,13.00
2023-02-19T14:09:36.563Z,12.66
2023-02-19T14:12:20.272Z,12.44
2023-02-19T14:14:56.553Z,12.46
2023-02-19T14:17:27.313Z,12.17
2023-02-19T14:20:16.924Z,11.92
2023-02-19T14:22:46.079Z,11.81
2023-02-19T14:25:38.800Z,11.72
2023-02-19T14:28:11.618Z,11.61
2023-02-19T14:30:51.898Z,11.36
2023-02-19T14:33:22.880Z,11.20
2023-02-19T14:35:55.275Z,11.01
2023-02-19T14:38:31.830Z,10.96
2023-02-19T14:40:58.619Z,11.01
2023-02-19T14:43:26.798Z,11.21
2023-02-19T14:46:01.368Z,11.33
2023-02-19T14:48:33.459Z,11.22
2023-02-19T14:51:28.786Z,11.19
2023-02-19T14:53:57.036Z,11.17
2023-02-19T14:56:27.745Z,11.20
2023-02-19T14:59:21.925Z,11.25
2023-02-19T15:01:59.417Z,11.34
2023-02-19T15:04:29.672Z,11.43
2023-02-19T15:06:57.476Z,11.47
2023-02-19T15:09:32.118Z,11.56
2023-02-19T15:11:59.417Z,11.66
2023-02-19T15:14:28.559Z,11.75
2023-02-19T15:17:01.025Z,11.77
2023-02-19T15:19:32.994Z,11.90
2023-02-19T15:21:59.493Z,11.92
2023-02-19T15:24:26.005Z,11.93
2023-02-19T15:26:54.524Z,11.83
2023-02-19T15:29:24.114Z,11.85
2023-02-19T15:31:52.301Z,11.67
2023-02-19T15:34:29.942Z,11.55
2023-02-19T15:37:03.194Z,11.48
2023-02-19T15:39:35.772Z,11.23
2023-02-19T15:42:04.642Z,11.13
2023-02-19T15:44:34.675Z,11.09
2023-02-19T15:47:11.413Z,11.10
2023-02-19T15:49:46.226Z,11.01
2023-02-19T15:52:21.111Z,10.90
2023-02-19T15:54:55.017Z,10.86
2023-02-19T15:57:28.031Z,10.81
2023-02-19T16:00:07.150Z,10.73
2023-02-19T16:02:34.409Z,10.74
2023-02-19T16:05:02.207Z,10.63
2023-02-19T16:07:34.711Z,10.63
2023-02-19T16:10:18.274Z,10.61
2023-02-19T16:12:54.032Z,10.49
2023-02-19T16:15:20.725Z,10.41
2023-02-19T16:17:47.502Z,10.33
2023-02-19T16:20:39.613Z,10.29
2023-02-19T16:23:13.748Z,10.33
2023-02-19T16:25:45.841Z,10.21
2023-02-19T16:28:24.244Z,10.16
2023-02-19T16:30:59.178Z,10.14
2023-02-19T16:33:40.849Z,10.19
2023-02-19T16:36:26.211Z,10.15
2023-02-19T16:39:20.233Z,10.03
2023-02-19T16:41:46.875Z,10.01
2023-02-19T16:44:25.091Z,9.83
2023-02-19T16:46:57.739Z,9.64
2023-02-19T16:49:24.636Z,9.49
2023-02-19T16:51:51.248Z,9.32
2023-02-19T16:54:17.537Z,9.24
2023-02-19T16:56:43.863Z,9.19
2023-02-19T16:59:10.156Z,9.22
2023-02-19T17:01:37.384Z,9.27
2023-02-19T17:04:11.429Z,9.22
2023-02-19T17:06:38.265Z,9.10
2023-02-19T17:09:08.564Z,8.98
2023-02-19T17:11:36.087Z,8.89
2023-02-19T17:14:02.602Z,8.93
2023-02-19T17:16:39.601Z,8.96
2023-02-19T17:19:13.005Z,9.04
2023-02-19T17:21:39.555Z,9.11
2023-02-19T17:24:06.160Z,9.26
2023-02-19T17:26:33.175Z,9.30
2023-02-19T17:29:01.723Z,9.35
2023-02-19T17:31:28.204Z,9.31
2023-02-19T17:33:55.026Z,9.39
2023-02-19T17:36:27.793Z,9.48
2023-02-19T17:38:54.412Z,9.48
2023-02-19T17:41:20.755Z,9.53
2023-02-19T17:43:47.499Z,9.57
2023-02-19T17:46:15.587Z,9.51
2023-02-19T17:48:41.978Z,9.58
2023-02-19T17:51:08.490Z,9.59
2023-02-19T17:53:34.800Z,9.56
2023-02-19T17:56:01.211Z,9.51
2023-02-19T17:58:27.551Z,9.43
2023-02-19T18:00:53.963Z,9.43
2023-02-19T18:03:20.324Z,9.43
2023-02-19T18:05:46.817Z,9.39
2023-02-19T18:08:13.253Z,9.31
2023-02-19T18:10:39.588Z,9.28
2023-02-19T18:13:06.084Z,9.24
2023-02-19T18:15:32.726Z,9.22
2023-02-19T18:17:59.177Z,9.18
2023-02-19T18:20:27.945Z,9.18
2023-02-19T18:22:55.736Z,9.26
2023-02-19T18:25:22.748Z,9.30
2023-02-19T18:27:49.672Z,9.26
2023-02-19T18:30:18.831Z,9.22
2023-02-19T18:32:49.527Z,9.17
2023-02-19T18:35:17.445Z,9.11
2023-02-19T18:37:43.849Z,9.18
2023-02-19T18:40:10.830Z,9.12
2023-02-19T18:42:37.187Z,9.09
2023-02-19T18:45:04.100Z,9.14
2023-02-19T18:47:30.374Z,9.19
2023-02-19T18:49:57.916Z,9.19
2023-02-19T18:52:26.110Z,9.14
2023-02-19T18:54:57.211Z,9.11
2023-02-19T18:57:25.259Z,9.12
2023-02-19T18:59:51.798Z,9.08
2023-02-19T19:02:18.979Z,9.13
2023-02-19T19:04:52.140Z,9.07
2023-02-19T19:07:19.588Z,9.10
2023-02-19T19:09:45.982Z,9.17
2023-02-19T19:12:12.388Z,9.14
2023-02-19T19:14:38.655Z,9.25
2023-02-19T19:17:05.395Z,9.17
2023-02-19T19:19:31.794Z,9.21
2023-02-19T19:21:58.071Z,9.15
2023-02-19T19:24:24.946Z,9.20
2023-02-19T19:26:51.934Z,9.12
2023-02-19T19:29:20.370Z,9.10
2023-02-19T19:31:46.922Z,9.04
2023-02-19T19:34:13.965Z,8.97
2023-02-19T19:36:40.369Z,9.00
2023-02-19T19:39:06.929Z,8.98
2023-02-19T19:41:33.311Z,8.96
2023-02-19T19:44:05.424Z,9.01
2023-02-19T19:46:32.513Z,9.12
2023-02-19T19:48:58.889Z,9.12
2023-02-19T19:51:31.878Z,9.09
2023-02-19T19:53:58.348Z,9.05
2023-02-19T19:56:24.937Z,9.08
2023-02-19T19:58:51.278Z,9.05
2023-02-19T20:01:20.956Z,9.08
2023-02-19T20:03:47.882Z,9.18
2023-02-19T20:06:14.560Z,9.24
2023-02-19T20:08:40.951Z,9.22
2023-02-19T20:11:07.219Z,9.13
2023-02-19T20:13:34.401Z,9.02
2023-02-19T20:16:00.789Z,9.07
2023-02-19T20:18:27.403Z,9.01
2023-02-19T20:20:53.992Z,9.02
2023-02-19T20:23:20.335Z,8.99
2023-02-19T20:25:46.611Z,8.90
2023-02-19T20:28:12.963Z,8.85
2023-02-19T20:30:39.320Z,8.77
2023-02-19T20:33:05.638Z,8.74
2023-02-19T20:35:32.403Z,8.73
2023-02-19T20:37:58.772Z,8.76
2023-02-19T20:40:27.556Z,8.75
2023-02-19T20:42:54.190Z,8.74
2023-02-19T20:45:21.270Z,8.76
2023-02-19T20:47:47.861Z,8.72
2023-02-19T20:50:17.527Z,8.71
2023-02-19T20:52:44.746Z,8.68
2023-02-19T20:55:11.160Z,8.65
2023-02-19T20:57:37.741Z,8.61
2023-02-19T21:00:05.796Z,8.60
2023-02-19T21:02:32.136Z,8.55
2023-02-19T21:04:58.844Z,8.59
2023-02-19T21:07:25.819Z,8.56
2023-02-19T21:09:52.541Z,8.60
2023-02-19T21:12:20.228Z,8.67
2023-02-19T21:14:46.973Z,8.63
2023-02-19T21:17:13.406Z,8.64
2023-02-19T21:19:40.036Z,8.64
2023-02-19T21:22:06.402Z,8.63
2023-02-19T21:24:32.740Z,8.62
2023-02-19T21:26:59.231Z,8.60
2023-02-19T21:29:27.956Z,8.53
2023-02-19T21:31:56.707Z,8.54
2023-02-19T21:34:25.850Z,8.51
2023-02-19T21:36:52.932Z,8.50
2023-02-19T21:39:21.387Z,8.47
2023-02-19T21:41:48.262Z,8.46
2023-02-19T21:44:15.242Z,8.44
2023-02-19T21:46:41.585Z,8.44
2023-02-19T21:49:08.333Z,8.47
2023-02-19T21:51:37.667Z,8.45
2023-02-19T21:54:05.961Z,8.45
2023-02-19T21:56:36.095Z,8.44
2023-02-19T21:59:02.995Z,8.43
2023-02-19T22:01:32.535Z,8.42
2023-02-19T22:03:59.177Z,8.42
2023-02-19T22:06:29.109Z,8.37
2023-02-19T22:08:55.768Z,8.33
2023-02-19T22:11:22.110Z,8.35
2023-02-19T22:13:48.360Z,8.45
2023-02-19T22:16:15.203Z,8.47
2023-02-19T22:18:48.886Z,8.47
2023-02-19T22:21:16.037Z,8.50
2023-02-19T22:23:47.160Z,8.49
2023-02-19T22:26:18.729Z,8.46
2023-02-19T22:28:45.873Z,8.44
2023-02-19T22:31:12.182Z,8.52
2023-02-19T22:33:40.950Z,8.52
2023-02-19T22:36:23.362Z,8.46
2023-02-19T22:38:50.091Z,8.53
2023-02-19T22:41:17.662Z,8.47
2023-02-19T22:43:44.915Z,8.45
2023-02-19T22:46:17.449Z,8.46
2023-02-19T22:48:43.840Z,8.41
2023-02-19T22:51:13.015Z,8.41
2023-02-19T22:53:44.729Z,8.39
2023-02-19T22:56:12.197Z,8.39
2023-02-19T22:58:39.466Z,8.38
2023-02-19T23:01:06.107Z,8.42
2023-02-19T23:03:32.439Z,8.41
2023-02-19T23:05:58.738Z,8.43
2023-02-19T23:08:25.082Z,8.40
2023-02-19T23:10:51.416Z,8.38
2023-02-19T23:13:17.705Z,8.38
2023-02-19T23:15:46.504Z,8.46
2023-02-19T23:18:12.788Z,8.38
2023-02-19T23:20:39.143Z,8.32
2023-02-19T23:23:05.402Z,8.31
2023-02-19T23:25:31.663Z,8.21
2023-02-19T23:27:58.444Z,8.08
2023-02-19T23:30:25.923Z,7.94
2023-02-19T23:32:52.612Z,7.80
2023-02-19T23:35:18.911Z,7.68
2023-02-19T23:37:45.234Z,7.54
2023-02-19T23:40:12.501Z,7.34
2023-02-19T23:42:38.751Z,7.15
2023-02-19T23:45:05.353Z,6.97
2023-02-19T23:47:31.640Z,6.79
2023-02-19T23:49:57.964Z,6.75
2023-02-19T23:52:24.296Z,6.59
2023-02-19T23:54:50.549Z,6.50
2023-02-19T23:57:16.874Z,6.52
2023-02-19T23:59:43.266Z,6.56
